Time;durP1;ratioP1;P1;durP2;ratioP2;P2;SDS_P1;SDS_P2;PMS_P1;PMS_P2;Temp;Humidity;BMP_temperature;BMP_pressure;BME280_temperature;BME280_humidity;BME280_pressure;Samples;Min_cycle;Max_cycle;Signal;HPM_P1;HPM_P2
2022/11/02 00:00:23;;;;;;;5.25;2.40;;;;;;;18.86;55.02;101947.68;1700362;84;21084;-51
2022/11/02 00:02:49;;;;;;;5.55;2.80;;;;;;;18.89;55.07;101939.22;1692468;83;21044;-50
2022/11/02 00:05:22;;;;;;;7.87;3.40;;;;;;;18.92;55.01;101940.41;1694020;84;21058;-50
2022/11/02 00:07:47;;;;;;;5.97;3.50;;;;;;;18.92;54.92;101931.66;1698539;84;21653;-50
2022/11/02 00:10:13;;;;;;;16.90;4.37;;;;;;;18.94;54.89;101930.66;1694840;84;21054;-50
2022/11/02 00:12:40;;;;;;;5.95;3.30;;;;;;;18.96;54.85;101925.34;1681361;84;21143;-50
2022/11/02 00:15:10;;;;;;;6.42;3.20;;;;;;;18.95;54.87;101925.80;1699265;84;21078;-50
2022/11/02 00:17:39;;;;;;;5.42;3.35;;;;;;;18.94;54.79;101916.15;1693434;84;21091;-50
2022/11/02 00:20:07;;;;;;;4.62;3.00;;;;;;;18.94;54.89;101909.55;1697533;83;21007;-50
2022/11/02 00:22:33;;;;;;;7.60;3.30;;;;;;;18.93;54.97;101907.85;1704779;84;20971;-50
2022/11/02 00:25:03;;;;;;;4.15;2.87;;;;;;;18.94;55.09;101898.17;1719929;83;21057;-50
2022/11/02 00:27:30;;;;;;;5.35;3.20;;;;;;;18.94;55.22;101902.96;1732434;80;21033;-51
2022/11/02 00:29:58;;;;;;;5.20;3.45;;;;;;;18.95;55.32;101898.10;1759118;80;21061;-50
2022/11/02 00:32:26;;;;;;;4.83;3.02;;;;;;;18.96;55.38;101902.92;1757100;80;21564;-50
2022/11/02 00:34:53;;;;;;;4.65;3.55;;;;;;;18.87;55.68;101897.53;1759250;80;21080;-50
2022/11/02 00:37:20;;;;;;;6.40;3.37;;;;;;;18.78;55.87;101897.87;1765718;80;21473;-50
2022/11/02 00:39:47;;;;;;;8.83;3.52;;;;;;;18.76;55.83;101889.16;1757866;80;21506;-50
2022/11/02 00:42:14;;;;;;;4.35;3.00;;;;;;;18.74;55.91;101887.04;1749893;80;21006;-50
2022/11/02 00:44:43;;;;;;;5.60;3.60;;;;;;;18.73;55.86;101885.34;1750033;80;21023;-51
2022/11/02 00:47:11;;;;;;;6.33;3.15;;;;;;;18.74;55.83;101877.81;1760011;80;21008;-51
2022/11/02 00:49:39;;;;;;;5.67;3.10;;;;;;;18.75;55.79;101876.04;1760886;80;21027;-50
2022/11/02 00:52:06;;;;;;;5.47;3.00;;;;;;;18.73;55.70;101874.79;1763995;80;21562;-50
2022/11/02 00:54:33;;;;;;;7.12;2.90;;;;;;;18.74;55.67;101872.53;1773886;80;21030;-51
2022/11/02 00:56:59;;;;;;;5.12;3.25;;;;;;;18.74;55.79;101867.27;1762676;80;21019;-50
2022/11/02 00:59:26;;;;;;;5.75;3.30;;;;;;;18.74;56.04;101867.27;1758350;80;21047;-50
2022/11/02 01:01:54;;;;;;;6.30;3.10;;;;;;;18.73;56.02;101870.83;1760856;80;21542;-50
2022/11/02 01:04:21;;;;;;;5.00;2.60;;;;;;;18.75;55.95;101865.49;1748246;80;21019;-50
2022/11/02 01:06:48;;;;;;;4.42;2.95;;;;;;;18.76;55.92;101865.42;1753404;80;21007;-50
2022/11/02 01:09:15;;;;;;;5.62;3.05;;;;;;;18.76;55.88;101854.88;1757617;80;21015;-50
2022/11/02 01:11:42;;;;;;;7.67;3.50;;;;;;;18.76;56.00;101858.83;1761592;80;21046;-50
2022/11/02 01:14:09;;;;;;;4.78;3.00;;;;;;;18.78;56.08;101860.95;1759371;80;21035;-50
2022/11/02 01:16:40;;;;;;;4.65;3.02;;;;;;;18.79;56.15;101860.05;1758654;80;21565;-50
2022/11/02 01:19:08;;;;;;;4.03;3.10;;;;;;;18.80;56.18;101859.12;1772008;80;21097;-51
2022/11/02 01:21:34;;;;;;;6.03;2.72;;;;;;;18.82;56.27;101858.60;1753015;81;21007;-50
2022/11/02 01:24:02;;;;;;;8.35;3.40;;;;;;;18.83;56.40;101855.06;1767254;80;21045;-50
2022/11/02 01:26:30;;;;;;;5.20;2.92;;;;;;;18.82;56.53;101852.00;1760571;80;21004;-49
2022/11/02 01:28:58;;;;;;;6.85;3.45;;;;;;;18.82;56.77;101849.37;1746308;80;21044;-50
2022/11/02 01:31:25;;;;;;;6.37;3.67;;;;;;;18.83;56.96;101837.92;1749216;80;21109;-49
2022/11/02 01:33:51;;;;;;;7.08;3.55;;;;;;;18.85;57.17;101829.94;1757939;80;22146;-50
2022/11/02 01:36:21;;;;;;;4.83;3.30;;;;;;;18.85;57.29;101821.58;1761524;80;21046;-50
2022/11/02 01:38:49;;;;;;;4.70;3.17;;;;;;;18.87;57.43;101821.05;1766868;80;21535;-50
2022/11/02 01:41:17;;;;;;;7.50;3.40;;;;;;;18.86;57.66;101819.32;1751915;80;21491;-50
2022/11/02 01:43:46;;;;;;;7.28;3.87;;;;;;;18.87;57.76;101817.55;1761816;80;21759;-50
2022/11/02 01:46:37;;;;;;;6.30;3.42;;;;;;;18.86;57.89;101818.00;1761411;80;21511;-50
2022/11/02 01:49:12;;;;;;;8.98;3.62;;;;;;;18.86;58.05;101816.69;1743353;81;21542;-50
2022/11/02 01:51:44;;;;;;;7.83;3.95;;;;;;;18.87;58.35;101814.91;1740244;80;21496;-52
2022/11/02 01:54:15;;;;;;;6.70;3.72;;;;;;;18.86;58.50;101811.41;1743242;80;21103;-50
2022/11/02 01:56:42;;;;;;;7.62;4.28;;;;;;;18.87;58.92;101811.83;1758261;80;21059;-50
2022/11/02 01:59:15;;;;;;;8.10;4.20;;;;;;;18.87;58.92;101811.83;1745556;80;21119;-51
2022/11/02 02:01:42;;;;;;;6.75;3.75;;;;;;;18.87;59.04;101811.83;1763188;80;21057;-50
2022/11/02 02:04:10;;;;;;;8.50;4.15;;;;;;;18.88;59.15;101812.21;1750521;80;21065;-51
2022/11/02 02:06:37;;;;;;;6.35;4.08;;;;;;;18.88;59.34;101810.89;1751950;80;21034;-50
2022/11/02 02:09:05;;;;;;;9.15;4.60;;;;;;;18.89;59.55;101806.03;1758485;80;21053;-50
2022/11/02 02:11:37;;;;;;;7.75;4.60;;;;;;;18.89;59.72;101795.48;1744775;80;21015;-50
2022/11/02 02:14:15;;;;;;;10.65;4.47;;;;;;;18.90;59.84;101802.45;1771678;80;21065;-51
2022/11/02 02:17:12;;;;;;;11.50;4.60;;;;;;;18.91;60.03;101791.45;1740899;80;21083;-50
2022/11/02 02:20:01;;;;;;;7.28;4.40;;;;;;;18.90;60.14;101787.95;1758900;80;20999;-50
2022/11/02 02:22:55;;;;;;;9.08;4.90;;;;;;;18.92;60.26;101790.55;1765045;80;21021;-51
2022/11/02 02:25:49;;;;;;;10.08;5.00;;;;;;;18.93;60.46;101797.08;1746484;81;21094;-51
2022/11/02 02:28:33;;;;;;;10.32;5.00;;;;;;;18.93;60.60;101798.39;1722041;83;21034;-53
2022/11/02 02:31:11;;;;;;;6.67;4.42;;;;;;;18.93;60.75;101796.20;1703366;83;21478;-51
2022/11/02 02:34:04;;;;;;;11.03;4.70;;;;;;;18.94;60.80;101798.78;1713318;83;21015;-51
2022/11/02 02:36:37;;;;;;;10.35;4.75;;;;;;;18.95;60.90;101801.83;1698497;83;21009;-51
2022/11/02 02:39:28;;;;;;;9.40;4.83;;;;;;;18.93;60.93;101789.16;1670616;86;21075;-51
2022/11/02 02:42:15;;;;;;;6.35;4.33;;;;;;;18.93;61.00;101793.13;1619593;87;21129;-51
2022/11/02 02:44:47;;;;;;;8.30;4.05;;;;;;;18.95;61.01;101799.64;1605999;88;21057;-51
2022/11/02 02:47:17;;;;;;;7.08;4.30;;;;;;;18.93;61.17;101799.71;1610853;88;21053;-51
2022/11/02 02:49:50;;;;;;;9.35;4.17;;;;;;;18.89;61.28;101791.52;1570338;91;21591;-51
2022/11/02 02:52:17;;;;;;;8.78;4.35;;;;;;;18.89;61.32;101792.84;1545990;91;21132;-51
2022/11/02 02:54:45;;;;;;;7.60;3.77;;;;;;;18.90;61.31;101789.27;1570171;91;21569;-51
2022/11/02 02:57:15;;;;;;;8.95;3.95;;;;;;;18.91;61.32;101785.73;1570502;91;21564;-51
2022/11/02 02:59:44;;;;;;;5.83;3.10;;;;;;;18.91;61.29;101784.41;1570447;91;21104;-51
2022/11/02 03:02:29;;;;;;;7.85;3.60;;;;;;;18.92;61.28;101780.84;1570271;91;21046;-51
2022/11/02 03:04:56;;;;;;;6.55;2.87;;;;;;;18.92;61.24;101778.20;1570301;91;21125;-51
2022/11/02 03:07:28;;;;;;;10.15;3.75;;;;;;;18.93;61.23;101781.25;1570288;91;21097;-51
2022/11/02 03:10:13;;;;;;;6.47;3.05;;;;;;;18.94;61.19;101780.31;1570411;91;21649;-51
2022/11/02 03:13:18;;;;;;;6.87;3.22;;;;;;;18.94;61.27;101772.41;1568558;91;21082;-51
2022/11/02 03:15:58;;;;;;;5.05;3.02;;;;;;;18.94;61.34;101771.56;1573796;90;21141;-52
2022/11/02 03:18:36;;;;;;;4.83;3.02;;;;;;;18.93;61.42;101766.75;1561880;90;21059;-51
2022/11/02 03:21:36;;;;;;;10.68;3.45;;;;;;;18.93;61.40;101762.79;1554660;90;21097;-51
2022/11/02 03:24:26;;;;;;;6.58;2.90;;;;;;;18.92;61.43;101755.78;1516155;92;21086;-51
2022/11/02 03:27:10;;;;;;;6.53;2.95;;;;;;;18.92;61.43;101753.14;1525423;92;21694;-51
2022/11/02 03:30:06;;;;;;;6.30;3.05;;;;;;;18.92;61.46;101745.23;1414104;99;21129;-51
2022/11/02 03:33:06;;;;;;;5.58;3.00;;;;;;;18.90;61.56;101744.44;1369108;103;21166;-52
2022/11/02 03:35:42;;;;;;;8.63;2.72;;;;;;;18.90;61.62;101736.52;1368363;104;21150;-51
2022/11/02 03:38:21;;;;;;;5.08;2.75;;;;;;;18.90;61.65;101744.44;1306797;107;21252;-52
2022/11/02 03:40:49;;;;;;;7.65;3.40;;;;;;;18.90;61.68;101740.48;1280756;110;21213;-51
2022/11/02 03:43:17;;;;;;;7.87;3.17;;;;;;;18.90;61.78;101733.89;1280673;110;21236;-52
2022/11/02 03:45:49;;;;;;;8.30;2.77;;;;;;;18.89;61.77;101729.55;1287167;109;21229;-51
2022/11/02 03:48:16;;;;;;;11.15;3.02;;;;;;;18.90;61.77;101735.69;1280326;111;21147;-51
2022/11/02 03:50:47;;;;;;;9.53;3.58;;;;;;;18.91;61.73;101732.12;1280916;111;21174;-52
2022/11/02 03:53:19;;;;;;;7.50;2.90;;;;;;;18.91;61.81;101726.39;1278946;110;21633;-51
2022/11/02 03:55:54;;;;;;;7.58;2.87;;;;;;;18.92;61.81;101729.41;1281700;109;21277;-52
2022/11/02 03:58:21;;;;;;;6.58;2.80;;;;;;;18.94;61.79;101734.16;1280290;111;21217;-51
2022/11/02 04:00:53;;;;;;;8.85;2.98;;;;;;;18.94;61.71;101727.56;1307713;108;21256;-51
2022/11/02 04:03:21;;;;;;;6.55;2.90;;;;;;;18.96;61.65;101732.31;1245681;114;21682;-51
2022/11/02 04:05:49;;;;;;;10.72;3.02;;;;;;;18.97;61.61;101730.09;1251995;114;21223;-52
2022/11/02 04:08:34;;;;;;;7.17;3.05;;;;;;;18.99;61.51;101732.20;1246835;113;21234;-51
2022/11/02 04:16:37;;;;;;;8.53;3.17;;;;;;;19.00;61.63;101714.13;1259600;112;21226;-51
2022/11/02 04:19:26;;;;;;;10.55;3.60;;;;;;;19.01;61.57;101710.58;1259256;111;21173;-51
2022/11/02 04:27:28;;;;;;;8.65;2.87;;;;;;;18.99;61.83;101715.06;1320329;106;21240;-51
2022/11/02 04:29:56;;;;;;;7.47;3.12;;;;;;;19.00;61.77;101722.52;1392922;101;21248;-51
2022/11/02 04:34:57;;;;;;;8.88;3.62;;;;;;;19.01;61.82;101703.98;1408721;100;21112;-51
2022/11/02 04:40:11;;;;;;;9.60;3.02;;;;;;;19.01;61.91;101701.34;1418040;100;21159;-51
2022/11/02 04:42:38;;;;;;;8.33;3.22;;;;;;;19.01;62.02;101694.75;1382904;102;21226;-52
2022/11/02 04:45:07;;;;;;;9.25;3.90;;;;;;;19.01;62.04;101697.39;1456593;94;21076;-52
2022/11/02 04:47:34;;;;;;;7.22;2.60;;;;;;;19.02;62.06;101701.73;1503232;93;21155;-51
2022/11/02 04:50:00;;;;;;;7.53;2.90;;;;;;;19.03;62.13;101704.78;1505848;94;21151;-51
2022/11/02 04:52:28;;;;;;;5.87;2.65;;;;;;;19.05;62.05;101706.02;1420141;99;21800;-51
2022/11/02 04:54:55;;;;;;;7.35;3.22;;;;;;;19.06;62.09;101708.59;1399965;101;21320;-51
2022/11/02 04:57:21;;;;;;;9.00;2.80;;;;;;;19.07;62.14;101710.32;1438396;97;21141;-51
2022/11/02 04:59:49;;;;;;;7.22;3.25;;;;;;;19.07;62.15;101711.64;1464564;94;21105;-51
2022/11/02 05:02:16;;;;;;;5.33;2.62;;;;;;;19.08;62.13;101708.06;1519429;93;21621;-51
2022/11/02 05:04:43;;;;;;;7.87;3.52;;;;;;;19.10;62.05;101712.81;1517974;94;21120;-51
2022/11/02 05:07:10;;;;;;;7.60;3.17;;;;;;;19.12;62.03;101705.73;1499613;92;21102;-51
2022/11/02 05:09:41;;;;;;;10.30;4.28;;;;;;;19.13;62.03;101714.02;1562772;91;21978;-51
2022/11/02 05:12:07;;;;;;;8.10;3.22;;;;;;;19.13;62.16;101704.78;1580563;88;21038;-51
2022/11/02 05:14:34;;;;;;;10.75;3.75;;;;;;;19.16;62.09;101709.95;1673659;85;21091;-51
2022/11/02 05:17:02;;;;;;;8.75;3.85;;;;;;;19.17;62.04;101709.02;1616714;88;21094;-52
2022/11/02 05:19:28;;;;;;;13.35;4.78;;;;;;;19.18;62.06;101705.47;1689908;84;21065;-51
2022/11/02 05:21:55;;;;;;;10.60;3.37;;;;;;;19.19;62.03;101711.13;1676937;84;21038;-51
2022/11/02 05:24:22;;;;;;;7.70;3.17;;;;;;;19.21;61.92;101712.38;1693229;83;21062;-51
2022/11/02 05:26:50;;;;;;;6.95;3.50;;;;;;;19.20;61.86;101710.22;1716357;82;21086;-51
2022/11/02 05:29:17;;;;;;;10.72;3.77;;;;;;;19.22;61.79;101715.42;1723471;82;21609;-51
2022/11/02 05:31:43;;;;;;;6.80;3.55;;;;;;;19.23;61.70;101704.80;1697067;83;21085;-52
2022/11/02 05:34:10;;;;;;;4.53;3.30;;;;;;;19.24;61.74;101707.84;1696087;84;21062;-51
2022/11/02 05:36:37;;;;;;;7.08;3.60;;;;;;;19.28;61.84;101709.42;1694909;83;21134;-51
2022/11/02 05:39:03;;;;;;;5.85;3.08;;;;;;;19.32;61.34;101705.73;1707303;83;21070;-51
2022/11/02 05:41:32;;;;;;;5.78;3.10;;;;;;;19.37;60.98;101714.33;1767234;80;21027;-52
2022/11/02 05:43:59;;;;;;;6.28;3.10;;;;;;;19.39;60.72;101719.08;1762120;80;21520;-53
2022/11/02 05:46:27;;;;;;;6.90;3.37;;;;;;;19.43;60.52;101715.87;1753192;81;21043;-51
2022/11/02 05:48:54;;;;;;;6.08;3.00;;;;;;;19.44;60.37;101715.80;1753266;80;21061;-51
2022/11/02 05:51:21;;;;;;;7.92;3.55;;;;;;;19.47;60.26;101715.64;1756772;80;21029;-51
2022/11/02 05:53:47;;;;;;;4.50;2.75;;;;;;;19.50;60.10;101715.98;1756196;80;21106;-51
2022/11/02 05:56:14;;;;;;;5.97;3.02;;;;;;;19.54;60.04;101715.41;1758800;80;21554;-51
2022/11/02 05:58:41;;;;;;;5.22;2.92;;;;;;;19.59;59.88;101714.73;1774356;80;21038;-51
2022/11/02 06:01:08;;;;;;;7.17;3.30;;;;;;;19.61;59.80;101711.11;1762033;80;21085;-51
2022/11/02 06:03:35;;;;;;;7.37;3.62;;;;;;;19.64;59.64;101709.62;1767350;80;21090;-51
2022/11/02 06:06:05;;;;;;;6.67;3.22;;;;;;;19.67;59.68;101708.64;1784190;80;21030;-51
2022/11/02 06:08:36;;;;;;;7.12;3.33;;;;;;;19.70;59.61;101716.45;1768422;80;21084;-52
2022/11/02 06:11:10;;;;;;;7.15;3.87;;;;;;;19.71;59.45;101709.77;1754986;80;20994;-51
2022/11/02 06:13:36;;;;;;;5.80;3.10;;;;;;;19.73;59.38;101713.20;1740476;81;21081;-51
2022/11/02 06:16:08;;;;;;;6.37;3.35;;;;;;;19.77;59.29;101709.95;1732014;81;21114;-51
2022/11/02 06:18:35;;;;;;;7.80;4.10;;;;;;;19.76;59.14;101713.08;1732857;82;21119;-50
2022/11/02 06:21:05;;;;;;;7.85;3.47;;;;;;;19.77;59.16;101716.55;1700286;82;21495;-51
2022/11/02 06:23:31;;;;;;;7.08;3.92;;;;;;;19.78;59.11;101711.68;1725280;82;21479;-51
2022/11/02 06:25:59;;;;;;;7.28;3.72;;;;;;;19.97;58.47;101715.22;1727681;81;21018;-53
2022/11/02 06:28:25;;;;;;;6.92;4.87;;;;;;;20.03;58.21;101708.33;1731523;82;21507;-51
2022/11/02 06:30:54;;;;;;;9.63;6.17;;;;;;;20.05;58.15;101710.44;1735493;81;21017;-50
2022/11/02 06:33:21;;;;;;;11.57;7.55;;;;;;;20.05;58.09;101707.80;1729829;81;21038;-51
2022/11/02 06:35:50;;;;;;;14.55;8.93;;;;;;;20.06;57.96;101702.44;1737396;82;21120;-51
2022/11/02 06:38:17;;;;;;;12.25;8.83;;;;;;;20.08;57.85;101703.22;1735194;82;20999;-51
2022/11/02 06:40:54;;;;;;;13.10;9.80;;;;;;;20.12;57.69;101707.89;1733269;82;21518;-51
2022/11/02 06:43:21;;;;;;;17.48;10.98;;;;;;;20.13;57.54;101697.73;1678837;84;21102;-51
2022/11/02 06:45:47;;;;;;;17.75;12.58;;;;;;;20.13;57.36;101697.73;1670853;85;21061;-51
2022/11/02 06:48:14;;;;;;;17.90;12.73;;;;;;;20.14;57.20;101699.43;1671882;85;21578;-50
2022/11/02 06:50:42;;;;;;;20.25;12.75;;;;;;;20.14;57.12;101694.14;1679884;85;21529;-51
2022/11/02 06:53:09;;;;;;;13.68;10.88;;;;;;;20.15;57.12;101694.55;1675818;84;21138;-52
2022/11/02 06:55:37;;;;;;;17.90;11.57;;;;;;;20.17;56.99;101695.34;1649135;85;21113;-50
2022/11/02 06:58:03;;;;;;;16.05;11.10;;;;;;;20.18;56.68;101693.07;1673465;85;21074;-51
2022/11/02 07:00:30;;;;;;;13.32;11.50;;;;;;;20.18;56.48;101695.71;1671863;85;21121;-51
2022/11/02 07:03:06;;;;;;;15.70;11.25;;;;;;;20.20;56.30;101695.21;1661154;84;21057;-51
2022/11/02 07:05:35;;;;;;;15.20;11.12;;;;;;;20.21;56.20;101699.58;1672660;84;21057;-52
2022/11/02 07:08:02;;;;;;;13.80;11.18;;;;;;;20.22;55.96;101697.31;1665028;84;21060;-51
2022/11/02 07:10:30;;;;;;;13.20;9.58;;;;;;;20.22;55.81;101693.35;1685729;83;21561;-50
2022/11/02 07:12:57;;;;;;;15.93;9.35;;;;;;;20.22;55.62;101699.96;1710975;83;21054;-51
2022/11/02 07:15:25;;;;;;;15.60;10.70;;;;;;;20.22;55.42;101693.35;1689661;83;21134;-51
2022/11/02 07:17:51;;;;;;;11.50;9.45;;;;;;;20.22;55.31;101697.31;1705198;83;21040;-50
2022/11/02 07:20:19;;;;;;;15.40;10.78;;;;;;;20.22;55.03;101687.61;1635642;86;21070;-51
2022/11/02 07:22:59;;;;;;;14.33;10.90;;;;;;;20.23;54.95;101691.13;1692636;83;21037;-51
2022/11/02 07:25:27;;;;;;;15.28;11.35;;;;;;;20.22;54.78;101684.10;1698903;83;21124;-50
2022/11/02 07:27:54;;;;;;;15.00;12.40;;;;;;;20.23;54.38;101691.13;1695795;83;21012;-50
2022/11/02 07:30:20;;;;;;;16.10;12.45;;;;;;;20.24;54.29;101686.21;1640069;87;21078;-50
2022/11/02 07:32:47;;;;;;;15.53;11.00;;;;;;;20.27;54.25;101688.72;1642115;86;21071;-50
2022/11/02 07:35:16;;;;;;;13.13;10.15;;;;;;;20.29;54.05;101690.83;1688249;83;21105;-51
2022/11/02 07:37:43;;;;;;;11.15;9.38;;;;;;;20.28;53.67;101691.74;1676368;85;21125;-50
2022/11/02 07:40:13;;;;;;;10.90;8.90;;;;;;;20.29;53.42;101690.83;1727278;80;21014;-51
2022/11/02 07:42:47;;;;;;;9.90;8.55;;;;;;;20.31;53.22;101683.68;1751610;80;21026;-51
2022/11/02 07:45:16;;;;;;;8.98;8.05;;;;;;;20.30;52.85;101678.48;1773088;80;21022;-51
2022/11/02 07:47:46;;;;;;;13.43;8.68;;;;;;;20.28;52.73;101677.20;1775709;80;21504;-50
2022/11/02 07:50:15;;;;;;;12.53;8.33;;;;;;;20.31;52.49;101681.50;1764010;80;21085;-50
2022/11/02 07:52:46;;;;;;;10.78;8.50;;;;;;;20.31;52.24;101682.82;1757865;80;21152;-50
2022/11/02 07:55:15;;;;;;;14.93;9.38;;;;;;;20.29;51.69;101676.30;1731713;81;21087;-51
2022/11/02 07:57:42;;;;;;;14.87;8.38;;;;;;;20.28;51.27;101669.28;1728932;82;21647;-50
2022/11/02 08:00:11;;;;;;;9.75;8.73;;;;;;;20.28;51.30;101665.31;1728608;82;21099;-50
2022/11/02 08:02:41;;;;;;;10.38;8.13;;;;;;;20.31;51.35;101664.31;1732551;82;21531;-50
2022/11/02 08:05:09;;;;;;;11.05;8.03;;;;;;;20.32;50.34;101665.55;1726654;82;21110;-51
2022/11/02 08:07:36;;;;;;;11.08;8.23;;;;;;;20.35;49.94;101665.42;1727957;82;21071;-50
2022/11/02 08:10:05;;;;;;;10.55;8.60;;;;;;;20.38;49.60;101661.30;1727320;82;21039;-50
2022/11/02 08:12:32;;;;;;;9.65;8.68;;;;;;;20.42;49.41;101666.86;1728013;82;21066;-50
2022/11/02 08:15:00;;;;;;;11.73;8.50;;;;;;;20.46;49.36;101669.75;1731161;82;21054;-50
2022/11/02 08:17:26;;;;;;;13.58;9.10;;;;;;;20.49;49.33;101663.42;1730144;82;21054;-50
2022/11/02 08:19:55;;;;;;;10.70;8.63;;;;;;;20.51;49.26;101662.43;1723917;82;21024;-50
2022/11/02 08:22:22;;;;;;;12.30;8.35;;;;;;;20.53;48.93;101663.22;1728785;82;21565;-51
2022/11/02 08:24:49;;;;;;;11.57;8.50;;;;;;;20.54;48.80;101666.27;1729788;82;21031;-51
2022/11/02 08:27:15;;;;;;;11.73;8.98;;;;;;;20.54;48.64;101660.11;1731908;82;21030;-50
2022/11/02 08:29:42;;;;;;;12.70;9.00;;;;;;;20.51;48.40;101654.50;1740449;82;21611;-50
2022/11/02 08:32:09;;;;;;;10.32;9.05;;;;;;;20.47;48.31;101655.58;1741555;82;21527;-50
2022/11/02 08:34:36;;;;;;;11.00;9.30;;;;;;;20.43;48.44;101646.08;1737042;82;21027;-50
2022/11/02 08:37:03;;;;;;;12.05;9.25;;;;;;;20.41;48.57;101645.30;1728424;82;21075;-51
2022/11/02 08:39:30;;;;;;;12.50;9.83;;;;;;;20.40;48.53;101637.45;1712246;82;21030;-50
2022/11/02 08:41:57;;;;;;;13.05;9.83;;;;;;;20.36;48.57;101639.86;1731142;82;21055;-50
2022/11/02 08:44:23;;;;;;;12.40;10.40;;;;;;;20.29;48.30;101643.25;1726753;82;21062;-50
2022/11/02 08:46:50;;;;;;;14.47;10.43;;;;;;;20.28;48.72;101640.20;1728618;82;21043;-50
2022/11/02 08:49:17;;;;;;;12.20;9.38;;;;;;;20.30;49.02;101636.19;1737992;82;21035;-51
2022/11/02 08:51:44;;;;;;;12.07;9.40;;;;;;;20.32;48.97;101638.29;1728467;82;21515;-50
2022/11/02 08:54:11;;;;;;;14.68;10.68;;;;;;;20.32;48.79;101632.52;1724152;82;21023;-50
2022/11/02 08:56:38;;;;;;;11.97;9.65;;;;;;;20.32;48.55;101635.16;1726215;82;21513;-51
2022/11/02 08:59:05;;;;;;;14.53;11.15;;;;;;;20.31;48.68;101636.11;1747832;80;21000;-50
2022/11/02 09:01:32;;;;;;;20.23;12.00;;;;;;;20.33;48.86;101636.89;1765841;80;20998;-52
2022/11/02 09:03:59;;;;;;;15.15;11.63;;;;;;;20.31;47.95;101638.75;1755022;80;21025;-50
2022/11/02 09:06:26;;;;;;;15.05;11.93;;;;;;;20.24;47.64;101632.03;1749652;80;21073;-49
2022/11/02 09:08:52;;;;;;;14.63;11.68;;;;;;;20.16;47.28;101636.79;1752650;80;21514;-51
2022/11/02 09:11:19;;;;;;;14.35;11.53;;;;;;;20.05;47.51;101639.11;1763198;80;21576;-50
2022/11/02 09:13:48;;;;;;;15.30;11.97;;;;;;;19.97;47.70;101635.97;1764491;80;21043;-50
2022/11/02 09:16:15;;;;;;;14.70;12.05;;;;;;;19.92;48.09;101635.31;1751802;80;21030;-50
2022/11/02 09:18:42;;;;;;;14.98;12.00;;;;;;;19.91;48.21;101629.16;1757918;80;20977;-50
2022/11/02 09:21:08;;;;;;;15.55;11.63;;;;;;;19.92;48.36;101624.28;1763826;80;21467;-50
2022/11/02 09:23:35;;;;;;;12.90;11.03;;;;;;;19.94;48.30;101625.53;1751818;80;21026;-50
2022/11/02 09:26:02;;;;;;;13.43;10.78;;;;;;;19.89;48.19;101622.23;1744499;80;21011;-50
2022/11/02 09:28:29;;;;;;;14.00;11.53;;;;;;;19.84;48.10;101625.56;1763805;80;21046;-51
2022/11/02 09:30:57;;;;;;;17.95;12.75;;;;;;;19.75;48.04;101620.23;1757488;80;21534;-50
2022/11/02 09:33:23;;;;;;;17.90;12.37;;;;;;;19.65;47.92;101620.72;1744234;80;21043;-50
2022/11/02 09:35:50;;;;;;;14.50;12.55;;;;;;;19.53;48.02;101616.00;1757211;80;21082;-50
2022/11/02 09:38:17;;;;;;;14.78;12.73;;;;;;;19.43;48.17;101609.80;1759596;80;21109;-50
2022/11/02 09:41:01;;;;;;;16.10;12.30;;;;;;;19.40;48.35;101609.09;1751100;80;21071;-50
2022/11/02 09:43:42;;;;;;;18.73;12.95;;;;;;;19.38;48.47;101604.34;1757388;80;21018;-51
2022/11/02 09:46:21;;;;;;;17.50;12.82;;;;;;;19.39;48.47;101602.12;1764491;80;21577;-50
2022/11/02 09:48:56;;;;;;;13.03;11.35;;;;;;;19.40;48.42;101600.72;1753230;80;21505;-50
2022/11/02 09:51:28;;;;;;;14.35;11.35;;;;;;;19.44;48.79;101599.66;1749153;80;21116;-51
2022/11/02 09:54:26;;;;;;;15.68;12.35;;;;;;;19.51;48.46;101599.37;1753447;80;21511;-50
2022/11/02 09:56:57;;;;;;;15.15;12.70;;;;;;;19.56;48.61;101596.08;1759242;80;22577;-51
2022/11/02 09:59:25;;;;;;;19.12;13.08;;;;;;;19.63;48.52;101586.94;1765681;80;21038;-50
2022/11/02 10:02:07;;;;;;;14.73;12.53;;;;;;;19.67;48.33;101593.78;1761413;80;21093;-50
2022/11/02 10:05:00;;;;;;;16.97;12.70;;;;;;;19.71;48.11;101580.83;1757715;80;21071;-50
2022/11/02 10:07:55;;;;;;;14.00;12.35;;;;;;;19.72;48.17;101574.64;1763382;80;21026;-50
2022/11/02 10:10:39;;;;;;;16.17;12.47;;;;;;;19.75;48.34;101570.52;1754282;80;21039;-50
2022/11/02 10:13:27;;;;;;;16.55;13.38;;;;;;;19.82;48.39;101575.92;1743349;80;21061;-50
2022/11/02 10:15:58;;;;;;;18.67;12.95;;;;;;;19.88;48.22;101570.34;1749315;80;21039;-50
2022/11/02 10:18:27;;;;;;;15.58;12.43;;;;;;;19.91;48.20;101564.91;1751766;80;21026;-50
2022/11/02 10:20:58;;;;;;;15.10;12.47;;;;;;;19.97;48.27;101562.83;1757711;81;21030;-50
2022/11/02 10:23:43;;;;;;;17.45;12.13;;;;;;;20.03;47.87;101564.34;1756840;80;21015;-51
2022/11/02 10:26:25;;;;;;;14.18;11.85;;;;;;;20.08;47.76;101558.36;1762522;80;21047;-50
2022/11/02 10:29:01;;;;;;;18.55;13.75;;;;;;;20.14;47.47;101567.30;1698611;82;21040;-50
2022/11/02 10:31:32;;;;;;;16.10;12.78;;;;;;;20.20;47.51;101574.97;1696976;82;21026;-51
2022/11/02 10:34:22;;;;;;;14.18;11.25;;;;;;;20.25;47.67;101570.33;1722258;82;21040;-50
2022/11/02 10:37:21;;;;;;;19.07;11.35;;;;;;;20.30;47.42;101557.73;1725875;82;21042;-50
2022/11/02 10:40:13;;;;;;;16.75;12.13;;;;;;;20.36;47.31;101550.81;1723019;82;21050;-50
2022/11/02 10:42:43;;;;;;;;;;;;;;;20.40;47.35;101551.09;1688411;84;21067;-50
2022/11/02 10:45:28;;;;;;;16.45;10.23;;;;;;;20.42;47.67;101549.22;1693527;84;20429;-49
2022/11/02 10:48:29;;;;;;;13.25;10.93;;;;;;;20.46;47.50;101542.84;1649078;85;21054;-49
2022/11/02 10:51:11;;;;;;;20.20;11.55;;;;;;;20.50;47.30;101545.72;1687081;83;21574;-50
2022/11/02 10:53:42;;;;;;;15.30;11.95;;;;;;;20.51;47.72;101540.81;1639584;86;21043;-50
2022/11/02 10:56:23;;;;;;;13.75;11.12;;;;;;;20.54;47.82;101542.45;1728131;82;20982;-50
2022/11/02 10:59:01;;;;;;;13.40;11.10;;;;;;;20.55;48.10;101537.08;1725687;82;21530;-50
2022/11/02 11:01:29;;;;;;;16.52;11.33;;;;;;;20.57;48.30;101540.95;1647683;85;21645;-50
2022/11/02 11:04:04;;;;;;;13.85;11.18;;;;;;;20.59;48.57;101538.63;1642766;85;21074;-50
2022/11/02 11:06:41;;;;;;;14.73;10.23;;;;;;;20.62;48.75;101535.84;1626545;87;21124;-50
2022/11/02 11:09:25;;;;;;;12.07;9.45;;;;;;;20.64;48.86;101535.30;1626423;88;21066;-51
2022/11/02 11:12:02;;;;;;;12.80;9.23;;;;;;;20.66;48.67;101526.82;1600149;88;21080;-50
2022/11/02 11:14:32;;;;;;;13.50;8.60;;;;;;;20.68;47.31;101519.66;1568706;89;21122;-51
2022/11/02 11:17:00;;;;;;;14.70;9.65;;;;;;;20.76;46.41;101525.41;1576607;88;21136;-50
2022/11/02 11:19:50;;;;;;;11.10;9.03;;;;;;;20.85;46.27;101527.59;1574142;89;21105;-49
2022/11/02 11:22:31;;;;;;;12.58;9.08;;;;;;;20.93;46.11;101513.49;1470562;96;21592;-50
2022/11/02 11:25:21;;;;;;;13.70;9.45;;;;;;;21.03;46.03;101513.42;1474442;94;21121;-50
2022/11/02 11:27:56;;;;;;;14.58;9.45;;;;;;;21.10;46.26;101507.80;1510740;94;21086;-50
2022/11/02 11:30:27;;;;;;;12.05;8.95;;;;;;;21.13;46.58;101512.91;1529149;91;21142;-50
2022/11/02 11:32:56;;;;;;;12.73;9.43;;;;;;;21.13;46.40;101507.63;1529439;91;21085;-49
2022/11/02 11:35:34;;;;;;;13.85;10.20;;;;;;;21.14;45.92;101511.53;1519893;92;21132;-50
2022/11/02 11:38:06;;;;;;;13.90;9.95;;;;;;;21.16;45.66;101508.80;1531717;93;21118;-50
2022/11/02 11:40:36;;;;;;;14.50;9.63;;;;;;;21.16;45.49;101513.62;1469865;96;21072;-49
2022/11/02 11:43:06;;;;;;;11.35;9.53;;;;;;;21.19;45.57;101509.94;1469886;95;21599;-50
2022/11/02 11:45:33;;;;;;;14.75;10.20;;;;;;;21.19;45.73;101504.64;1466728;96;21169;-51
2022/11/02 11:48:38;;;;;;;14.45;10.48;;;;;;;21.21;45.61;101513.36;1490169;95;21681;-50
2022/11/02 11:51:19;;;;;;;13.15;9.75;;;;;;;21.22;45.78;101510.66;1464578;97;21103;-49
2022/11/02 11:54:18;;;;;;;12.68;9.68;;;;;;;21.25;46.03;101506.96;1440896;97;21646;-51
2022/11/02 11:56:47;;;;;;;16.32;9.78;;;;;;;21.25;46.22;101505.64;1417499;100;21177;-50